Time;durP1;ratioP1;P1;durP2;ratioP2;P2;SDS_P1;SDS_P2;PMS_P1;PMS_P2;Temp;Humidity;BMP_temperature;BMP_pressure;BME280_temperature;BME280_humidity;BME280_pressure;Samples;Min_cycle;Max_cycle;Signal;HPM_P1;HPM_P2
2022/06/16 00:00:14;;;;;;;2.63;1.63;;;18.30;54.50;;;;;;5115386;28;20440;-32
2022/06/16 00:02:45;;;;;;;4.43;1.90;;;18.30;54.50;;;;;;5116142;28;20085;-32
2022/06/16 00:05:13;;;;;;;3.95;1.98;;;18.20;54.60;;;;;;5115957;27;20110;-30
2022/06/16 00:07:40;;;;;;;3.35;1.83;;;18.20;54.70;;;;;;5115642;28;20045;-31
2022/06/16 00:10:07;;;;;;;2.20;1.70;;;18.20;54.70;;;;;;5115572;28;20027;-31
2022/06/16 00:12:33;;;;;;;2.90;1.90;;;18.10;54.70;;;;;;5115539;28;20035;-30
2022/06/16 00:14:59;;;;;;;2.33;1.60;;;18.10;54.80;;;;;;5115337;28;20065;-30
2022/06/16 00:17:25;;;;;;;2.95;1.80;;;18.10;54.90;;;;;;5115276;28;20483;-32
2022/06/16 00:19:51;;;;;;;2.60;1.90;;;18.10;54.90;;;;;;5115059;28;20035;-36
2022/06/16 00:22:17;;;;;;;2.92;1.90;;;18.10;55.00;;;;;;5115259;28;20016;-33
2022/06/16 00:24:42;;;;;;;4.60;2.00;;;18.10;55.10;;;;;;5115334;28;20403;-32
2022/06/16 00:27:08;;;;;;;2.40;1.75;;;18.10;55.40;;;;;;5115309;28;20028;-31
2022/06/16 00:29:34;;;;;;;3.50;1.67;;;18.10;55.20;;;;;;5115123;28;20034;-29
2022/06/16 00:32:01;;;;;;;2.85;1.80;;;18.00;55.20;;;;;;5114877;28;20034;-28
2022/06/16 00:34:26;;;;;;;3.75;1.80;;;18.00;55.30;;;;;;5114805;28;20398;-31
2022/06/16 00:36:52;;;;;;;3.20;1.65;;;17.90;56.00;;;;;;5115184;28;20099;-31
2022/06/16 00:39:18;;;;;;;3.67;1.90;;;17.90;55.50;;;;;;5115052;28;20371;-30
2022/06/16 00:41:44;;;;;;;3.22;1.90;;;17.80;55.60;;;;;;5114691;28;20072;-30
2022/06/16 00:44:30;;;;;;;2.78;1.80;;;17.80;55.70;;;;;;5114717;28;20106;-29
2022/06/16 00:46:56;;;;;;;3.38;1.67;;;17.70;55.80;;;;;;5114865;27;20031;-29
2022/06/16 00:49:22;;;;;;;3.97;2.10;;;17.60;55.80;;;;;;5114907;28;20096;-28
2022/06/16 00:51:56;;;;;;;2.05;1.80;;;17.50;55.90;;;;;;5114753;28;20088;-29
2022/06/16 00:54:53;;;;;;;3.47;1.90;;;17.50;56.10;;;;;;5114468;28;20370;-32
2022/06/16 00:57:27;;;;;;;2.25;1.83;;;17.40;56.20;;;;;;5098336;28;20115;-33
2022/06/16 00:59:53;;;;;;;2.25;1.65;;;17.30;56.20;;;;;;5114408;27;20046;-33
2022/06/16 01:02:19;;;;;;;2.70;1.70;;;17.30;56.20;;;;;;5114591;28;20055;-30
2022/06/16 01:04:54;;;;;;;2.47;1.80;;;17.30;56.30;;;;;;5114725;28;20051;-31
2022/06/16 01:07:44;;;;;;;2.20;1.75;;;17.30;56.40;;;;;;5114208;28;20034;-32
2022/06/16 01:10:11;;;;;;;2.53;1.73;;;17.20;56.50;;;;;;5113163;28;20028;-32
2022/06/16 01:16:09;;;;;;;3.20;1.85;;;17.10;56.60;;;;;;5114031;28;20046;-31
2022/06/16 01:18:53;;;;;;;2.65;1.80;;;17.10;56.80;;;;;;5114066;27;20479;-31
2022/06/16 01:21:31;;;;;;;3.08;1.90;;;17.00;56.90;;;;;;5114169;28;20039;-32
2022/06/16 01:23:59;;;;;;;4.07;1.88;;;16.90;57.00;;;;;;5113959;28;20040;-30
2022/06/16 01:26:56;;;;;;;2.15;1.60;;;16.80;57.10;;;;;;5114419;28;20039;-30
2022/06/16 01:29:52;;;;;;;3.13;2.20;;;16.80;57.40;;;;;;5114169;28;20044;-30
2022/06/16 01:32:26;;;;;;;2.42;1.65;;;16.70;57.30;;;;;;5113840;28;20502;-32
2022/06/16 01:35:12;;;;;;;3.63;2.03;;;16.80;57.50;;;;;;5113801;28;20032;-30
2022/06/16 01:37:41;;;;;;;3.13;1.48;;;16.70;57.60;;;;;;5113674;28;20023;-30
2022/06/16 01:40:23;;;;;;;2.58;1.80;;;16.70;57.60;;;;;;5113512;28;20020;-32
2022/06/16 01:43:12;;;;;;;6.93;1.88;;;16.70;57.70;;;;;;5113881;28;20471;-31
2022/06/16 01:45:46;;;;;;;2.53;1.65;;;16.70;57.70;;;;;;5113772;28;20015;-31
2022/06/16 01:48:13;;;;;;;3.35;2.08;;;16.70;57.70;;;;;;5113874;28;20107;-30
2022/06/16 01:50:49;;;;;;;4.97;2.22;;;16.70;57.80;;;;;;5113501;28;20068;-33
2022/06/16 01:53:21;;;;;;;4.97;2.33;;;16.60;57.90;;;;;;5113520;28;20020;-38
2022/06/16 01:55:56;;;;;;;1.77;1.50;;;16.60;58.60;;;;;;5113624;28;20016;-30
2022/06/16 01:58:28;;;;;;;2.83;2.15;;;16.60;58.20;;;;;;5113588;28;20059;-30
2022/06/16 02:00:56;;;;;;;2.72;2.13;;;16.50;58.30;;;;;;5113114;28;20362;-31
2022/06/16 02:03:29;;;;;;;3.08;1.90;;;16.50;58.40;;;;;;5112627;28;20011;-30
2022/06/16 02:06:01;;;;;;;3.08;2.00;;;16.40;58.50;;;;;;5113152;28;20075;-30
2022/06/16 02:08:34;;;;;;;3.00;1.92;;;16.40;58.60;;;;;;5113449;28;20531;-31
2022/06/16 02:11:28;;;;;;;3.55;2.20;;;16.30;58.70;;;;;;5113156;28;20546;-30
2022/06/16 02:14:12;;;;;;;3.55;2.15;;;16.30;58.90;;;;;;5108853;27;20340;-30
2022/06/16 02:16:39;;;;;;;2.47;2.10;;;16.30;58.90;;;;;;5113006;28;20035;-30
2022/06/16 02:19:11;;;;;;;2.75;2.00;;;16.20;58.90;;;;;;5111719;28;20123;-39
2022/06/16 02:21:41;;;;;;;4.50;2.20;;;16.20;59.10;;;;;;5113325;28;20052;-34
2022/06/16 02:24:09;;;;;;;3.00;2.08;;;16.10;59.10;;;;;;5113207;28;20073;-30
2022/06/16 02:26:37;;;;;;;3.38;2.28;;;16.10;59.30;;;;;;5113004;28;20355;-31
2022/06/16 02:29:21;;;;;;;3.90;2.30;;;16.00;59.50;;;;;;5112963;28;20024;-33
2022/06/16 02:31:59;;;;;;;2.90;2.17;;;16.00;59.70;;;;;;5112882;28;20084;-29
2022/06/16 02:34:39;;;;;;;3.22;1.98;;;16.00;59.70;;;;;;5112850;28;20016;-31
2022/06/16 02:37:27;;;;;;;2.50;1.88;;;15.90;59.70;;;;;;5112870;28;20027;-30
2022/06/16 02:40:40;;;;;;;3.05;1.92;;;15.90;59.70;;;;;;5112927;28;20491;-31
2022/06/16 02:43:08;;;;;;;3.53;2.00;;;15.90;59.60;;;;;;5112804;28;20142;-32
2022/06/16 02:45:43;;;;;;;4.18;2.25;;;16.00;59.70;;;;;;5112984;28;20023;-30
2022/06/16 02:48:21;;;;;;;3.28;1.90;;;15.90;59.70;;;;;;5113386;28;20026;-30
2022/06/16 02:51:03;;;;;;;2.50;1.88;;;15.90;59.70;;;;;;5112651;28;20027;-29
2022/06/16 02:56:34;;;;;;;4.55;1.80;;;15.90;59.70;;;;;;5113211;28;20023;-30
2022/06/16 02:59:06;;;;;;;3.92;2.22;;;15.80;59.70;;;;;;5112949;28;20171;-30
2022/06/16 03:01:33;;;;;;;2.70;1.83;;;15.80;59.70;;;;;;5112600;28;20551;-30
2022/06/16 03:04:01;;;;;;;3.80;2.03;;;15.70;59.70;;;;;;5112608;28;20099;-28
2022/06/16 03:06:27;;;;;;;3.28;2.05;;;15.70;59.80;;;;;;5112886;28;20188;-29
2022/06/16 03:08:53;;;;;;;5.10;2.10;;;15.80;59.90;;;;;;5113139;28;20058;-29
2022/06/16 03:11:18;;;;;;;4.70;2.45;;;15.80;59.80;;;;;;5112635;28;20020;-30
2022/06/16 03:13:44;;;;;;;4.97;2.60;;;15.80;59.70;;;;;;5112991;28;20104;-29
2022/06/16 03:16:10;;;;;;;3.67;2.25;;;15.90;59.80;;;;;;5116712;28;20106;-29
2022/06/16 03:18:36;;;;;;;3.90;2.22;;;15.90;59.80;;;;;;5116744;28;20490;-29
2022/06/16 03:21:01;;;;;;;3.78;2.15;;;15.90;59.90;;;;;;5116722;28;20102;-30
2022/06/16 03:23:27;;;;;;;4.13;2.17;;;15.90;59.80;;;;;;5116716;28;20043;-29
2022/06/16 03:25:53;;;;;;;4.28;2.40;;;15.90;60.50;;;;;;5116325;28;20028;-29
2022/06/16 03:28:19;;;;;;;3.22;2.42;;;15.80;60.00;;;;;;5116219;28;20034;-29
2022/06/16 03:30:44;;;;;;;4.35;2.33;;;15.80;60.00;;;;;;5116222;28;20026;-29
2022/06/16 03:33:11;;;;;;;4.93;2.47;;;15.80;60.10;;;;;;5116049;28;20070;-29
2022/06/16 03:35:37;;;;;;;4.88;2.20;;;15.70;60.20;;;;;;5116343;28;20016;-30
2022/06/16 03:39:04;;;;;;;3.00;2.05;;;15.70;60.30;;;;;;5116432;28;20352;-28
2022/06/16 03:40:58;;;;;;;4.43;2.50;;;15.70;61.00;;;;;;5110964;27;20066;-29
2022/06/16 03:43:24;;;;;;;5.22;2.10;;;15.60;60.30;;;;;;5115928;28;20059;-29
2022/06/16 03:45:49;;;;;;;5.28;2.50;;;15.60;60.50;;;;;;5115942;28;20020;-29
2022/06/16 03:48:15;;;;;;;2.97;2.47;;;15.60;60.60;;;;;;5115878;28;20151;-30
2022/06/16 03:50:41;;;;;;;4.75;2.47;;;15.50;60.70;;;;;;5116055;28;20011;-28
2022/06/16 03:53:07;;;;;;;5.03;2.20;;;15.50;60.80;;;;;;5116093;28;20019;-30
2022/06/16 03:55:33;;;;;;;3.95;2.50;;;15.50;60.90;;;;;;5116090;28;20026;-29
2022/06/16 03:57:58;;;;;;;3.13;2.20;;;15.50;61.10;;;;;;5115727;28;20383;-30
2022/06/16 04:00:25;;;;;;;3.50;2.50;;;15.50;61.20;;;;;;5114083;28;20057;-30
2022/06/16 04:05:46;;;;;;;2.80;2.10;;;15.40;61.40;;;;;;5113367;28;20067;-29
2022/06/16 04:08:14;;;;;;;3.67;2.53;;;15.40;61.50;;;;;;5115514;28;20426;-29
2022/06/16 04:10:40;;;;;;;4.32;2.42;;;15.40;61.70;;;;;;5116043;28;20027;-30
2022/06/16 04:13:05;;;;;;;3.22;2.35;;;15.40;61.70;;;;;;5116188;28;20526;-32
2022/06/16 04:15:31;;;;;;;4.47;2.40;;;15.40;61.90;;;;;;5115490;28;20034;-30
2022/06/16 04:17:57;;;;;;;4.40;2.53;;;15.40;62.00;;;;;;5113896;28;20019;-31
2022/06/16 04:20:23;;;;;;;3.50;2.28;;;15.30;62.10;;;;;;5115195;28;20042;-30
2022/06/16 04:22:53;;;;;;;2.92;2.45;;;15.30;62.30;;;;;;5115201;28;20028;-34
2022/06/16 04:25:21;;;;;;;3.63;2.58;;;15.30;62.40;;;;;;5114507;28;20109;-43
2022/06/16 04:27:47;;;;;;;4.03;2.70;;;15.30;62.50;;;;;;5115135;28;20058;-30
2022/06/16 04:30:15;;;;;;;3.88;2.60;;;15.20;62.60;;;;;;5115256;28;20020;-29
2022/06/16 04:32:40;;;;;;;9.15;3.63;;;15.20;62.80;;;;;;5115127;28;20063;-31
2022/06/16 04:35:07;;;;;;;3.90;2.38;;;15.20;62.80;;;;;;5114931;28;20028;-29
2022/06/16 04:37:33;;;;;;;3.42;2.45;;;15.20;62.80;;;;;;5114968;28;20498;-28
2022/06/16 04:39:59;;;;;;;4.00;2.45;;;15.20;62.80;;;;;;5114908;28;20080;-28
2022/06/16 04:42:25;;;;;;;4.57;2.58;;;15.20;62.90;;;;;;5114791;27;20011;-29
2022/06/16 04:44:51;;;;;;;3.67;2.47;;;15.20;63.00;;;;;;5115061;28;20046;-29
2022/06/16 04:47:17;;;;;;;3.67;2.80;;;15.20;63.00;;;;;;5115474;28;20024;-29
2022/06/16 04:49:48;;;;;;;2.92;2.25;;;15.30;63.20;;;;;;5115078;28;20036;-29
2022/06/16 04:52:15;;;;;;;4.63;2.55;;;15.30;63.20;;;;;;5115075;28;20085;-29
2022/06/16 04:54:46;;;;;;;5.00;2.65;;;15.30;63.40;;;;;;5114681;28;20024;-29
2022/06/16 04:57:13;;;;;;;3.47;2.60;;;15.30;63.40;;;;;;5114550;28;20028;-29
2022/06/16 04:59:39;;;;;;;3.50;2.38;;;15.30;63.40;;;;;;5112964;28;20387;-30
2022/06/16 05:02:05;;;;;;;3.22;2.47;;;15.30;63.40;;;;;;5114700;28;20041;-28
2022/06/16 05:04:30;;;;;;;2.55;2.25;;;15.40;63.70;;;;;;5114776;28;20514;-30
2022/06/16 05:06:56;;;;;;;3.42;2.50;;;15.40;63.60;;;;;;5114405;28;20028;-30
2022/06/16 05:09:23;;;;;;;5.20;2.80;;;15.40;63.80;;;;;;5113049;28;20023;-29
2022/06/16 05:11:49;;;;;;;3.95;2.50;;;15.40;63.90;;;;;;5114513;28;20053;-29
2022/06/16 05:14:15;;;;;;;4.60;2.30;;;15.40;64.00;;;;;;5113295;28;20076;-31
2022/06/16 05:16:41;;;;;;;3.95;2.17;;;15.50;64.10;;;;;;5114285;28;20460;-29
2022/06/16 05:19:07;;;;;;;3.80;2.20;;;15.50;64.30;;;;;;5114186;28;20073;-38
2022/06/16 05:21:32;;;;;;;2.92;2.25;;;15.50;64.30;;;;;;5114098;28;20039;-30
2022/06/16 05:23:58;;;;;;;2.70;2.10;;;15.60;64.30;;;;;;5114249;28;20076;-32
2022/06/16 05:26:24;;;;;;;3.92;2.00;;;15.60;64.10;;;;;;5114126;28;20020;-30
2022/06/16 05:28:49;;;;;;;4.65;2.13;;;15.70;64.00;;;;;;5114297;28;20082;-29
2022/06/16 05:31:15;;;;;;;2.88;2.00;;;15.80;63.90;;;;;;5113953;28;20033;-28
2022/06/16 05:33:41;;;;;;;2.33;2.10;;;15.90;63.80;;;;;;5113937;28;20030;-32
2022/06/16 05:36:09;;;;;;;3.78;1.95;;;15.90;63.70;;;;;;5113892;28;20083;-29
2022/06/16 05:38:35;;;;;;;4.07;2.45;;;15.90;63.80;;;;;;5113665;28;20024;-28
2022/06/16 05:41:10;;;;;;;3.38;1.77;;;15.90;63.90;;;;;;5113768;28;20020;-28
2022/06/16 05:43:36;;;;;;;2.63;2.17;;;15.90;63.80;;;;;;5113798;28;20031;-29
2022/06/16 05:46:04;;;;;;;3.08;2.10;;;15.90;63.80;;;;;;5113632;28;20055;-28
2022/06/16 05:48:30;;;;;;;4.82;2.45;;;16.00;63.90;;;;;;5113805;28;20099;-28
2022/06/16 05:50:55;;;;;;;2.33;1.60;;;16.00;63.80;;;;;;5114036;28;20102;-30
2022/06/16 05:53:21;;;;;;;3.13;1.95;;;16.00;63.80;;;;;;5114023;28;20098;-29
2022/06/16 05:55:48;;;;;;;5.03;2.03;;;16.10;63.70;;;;;;5113392;28;20028;-29
2022/06/16 05:58:14;;;;;;;3.17;2.00;;;16.20;63.60;;;;;;5113599;28;20038;-31
2022/06/16 06:00:39;;;;;;;2.95;1.60;;;16.20;63.60;;;;;;5113205;28;20039;-30
2022/06/16 06:03:05;;;;;;;3.08;1.55;;;16.30;63.40;;;;;;5113596;28;20081;-30
2022/06/16 06:05:30;;;;;;;2.67;1.52;;;16.40;63.40;;;;;;5113242;28;20015;-33
2022/06/16 06:16:25;;;;;;;4.47;1.75;;;16.50;62.60;;;;;;5113371;28;20031;-34
2022/06/16 06:18:56;;;;;;;2.10;1.40;;;16.50;62.30;;;;;;5113318;28;20048;-30
2022/06/16 06:22:11;;;;;;;3.13;1.30;;;16.60;62.00;;;;;;5113248;28;20088;-29
2022/06/16 06:24:10;;;;;;;2.95;1.50;;;16.60;61.90;;;;;;5109000;28;20168;-33
2022/06/16 06:26:35;;;;;;;2.53;1.30;;;16.60;61.70;;;;;;5113071;28;20027;-38
2022/06/16 06:29:01;;;;;;;1.33;1.10;;;16.70;61.50;;;;;;5113168;28;20111;-30
2022/06/16 06:31:27;;;;;;;3.63;1.40;;;16.80;61.40;;;;;;5113177;28;20077;-31
2022/06/16 06:33:52;;;;;;;1.80;1.23;;;16.80;61.10;;;;;;5113495;28;20024;-30
2022/06/16 06:36:18;;;;;;;1.58;1.10;;;16.90;61.60;;;;;;5113096;28;20031;-29
2022/06/16 06:38:44;;;;;;;3.53;1.30;;;17.00;60.80;;;;;;5113159;28;20088;-29
2022/06/16 06:41:09;;;;;;;2.58;1.00;;;17.10;60.60;;;;;;5113001;28;20073;-39
2022/06/16 06:43:35;;;;;;;1.05;0.80;;;17.20;60.30;;;;;;5113159;28;20056;-30
2022/06/16 06:46:00;;;;;;;2.55;1.00;;;17.20;59.90;;;;;;5112848;28;20012;-32
2022/06/16 06:48:26;;;;;;;2.45;0.95;;;17.30;59.60;;;;;;5113223;28;20096;-30
2022/06/16 06:50:52;;;;;;;2.03;0.85;;;17.30;59.20;;;;;;5117063;28;20028;-30
2022/06/16 06:53:17;;;;;;;2.03;1.00;;;17.40;58.90;;;;;;5115510;28;20023;-30
2022/06/16 06:55:46;;;;;;;1.75;0.82;;;17.50;58.50;;;;;;5116738;28;20578;-31
2022/06/16 06:58:20;;;;;;;1.15;0.70;;;17.50;58.10;;;;;;5116862;28;20118;-34
2022/06/16 07:00:46;;;;;;;1.88;0.80;;;17.50;57.80;;;;;;5116337;28;20044;-36
2022/06/16 07:03:12;;;;;;;0.88;0.70;;;17.60;57.60;;;;;;5116675;28;20024;-31
2022/06/16 07:05:38;;;;;;;1.65;0.90;;;17.70;57.50;;;;;;5116468;28;20123;-30
2022/06/16 07:08:05;;;;;;;2.85;1.10;;;17.70;57.20;;;;;;5116705;28;20072;-31
2022/06/16 07:10:30;;;;;;;1.55;0.88;;;17.80;56.70;;;;;;5116550;28;20054;-31
2022/06/16 07:12:56;;;;;;;1.30;0.93;;;17.80;56.30;;;;;;5116423;28;20451;-32
2022/06/16 07:15:22;;;;;;;2.03;0.90;;;17.80;56.00;;;;;;5116691;28;20035;-33
2022/06/16 07:17:48;;;;;;;2.75;1.13;;;17.90;56.00;;;;;;5116312;28;20027;-35
2022/06/16 07:20:15;;;;;;;2.22;0.98;;;17.90;55.40;;;;;;5116460;28;20459;-30
2022/06/16 07:22:42;;;;;;;3.80;0.90;;;18.00;55.40;;;;;;5116131;28;20077;-31
2022/06/16 07:25:08;;;;;;;1.23;1.00;;;18.00;55.40;;;;;;5116846;28;20019;-29
2022/06/16 07:27:33;;;;;;;2.13;0.90;;;18.10;55.20;;;;;;5116218;28;20019;-39
2022/06/16 07:29:59;;;;;;;3.13;0.90;;;18.20;55.20;;;;;;5116306;28;20031;-31
2022/06/16 07:32:25;;;;;;;2.28;0.85;;;18.30;55.10;;;;;;5116336;28;20036;-34
2022/06/16 07:34:50;;;;;;;0.82;0.80;;;18.40;55.00;;;;;;5116103;28;20020;-30
2022/06/16 07:37:16;;;;;;;1.65;0.80;;;18.50;54.90;;;;;;5116008;28;20111;-31
2022/06/16 07:39:42;;;;;;;0.80;0.70;;;18.60;54.70;;;;;;5115889;27;20455;-31
2022/06/16 07:42:08;;;;;;;2.42;1.00;;;18.70;54.30;;;;;;5116437;27;20028;-33
2022/06/16 07:44:34;;;;;;;1.45;0.70;;;18.70;54.00;;;;;;5116049;27;20012;-30
2022/06/16 07:46:59;;;;;;;1.02;0.80;;;18.70;53.60;;;;;;5116524;28;20016;-32
2022/06/16 07:49:27;;;;;;;1.52;0.90;;;18.70;53.40;;;;;;5115921;28;20072;-30
2022/06/16 07:51:55;;;;;;;1.45;0.90;;;18.70;53.40;;;;;;5115902;28;20043;-31
2022/06/16 07:54:21;;;;;;;2.38;1.05;;;18.80;53.40;;;;;;5115654;28;20094;-30
2022/06/16 07:57:15;;;;;;;2.40;0.90;;;18.90;53.50;;;;;;5115395;28;20026;-29
2022/06/16 07:59:40;;;;;;;;;;;19.00;53.60;;;;;;5115444;28;20503;-32
2022/06/16 08:02:06;;;;;;;2.10;1.10;;;19.00;53.60;;;;;;5114749;28;19933;-30
2022/06/16 08:04:32;;;;;;;3.28;1.20;;;19.00;53.50;;;;;;5115259;28;20513;-30
2022/06/16 08:07:00;;;;;;;4.15;1.00;;;19.10;53.40;;;;;;5115546;28;20020;-30
2022/06/16 08:09:27;;;;;;;1.92;1.02;;;19.10;53.40;;;;;;5115252;27;20020;-32
2022/06/16 08:12:07;;;;;;;2.42;1.00;;;19.20;53.50;;;;;;5115685;28;20391;-33
2022/06/16 08:14:36;;;;;;;0.90;0.80;;;19.30;53.30;;;;;;5115541;28;20571;-34
2022/06/16 08:17:04;;;;;;;1.63;1.10;;;19.40;53.10;;;;;;5115646;27;20015;-29
2022/06/16 08:19:29;;;;;;;1.83;1.00;;;19.40;52.90;;;;;;5115352;28;20024;-33
2022/06/16 08:21:55;;;;;;;2.00;1.05;;;19.50;52.80;;;;;;5115014;28;20027;-30
2022/06/16 08:24:20;;;;;;;2.22;0.93;;;19.60;52.60;;;;;;5115528;28;20023;-33
2022/06/16 08:26:47;;;;;;;3.15;1.00;;;19.60;52.50;;;;;;5114998;28;20059;-31
2022/06/16 08:29:15;;;;;;;1.95;1.08;;;19.60;52.30;;;;;;5114945;28;20401;-31
2022/06/16 08:31:42;;;;;;;1.98;1.20;;;19.70;52.10;;;;;;5114935;28;20054;-29
2022/06/16 08:34:08;;;;;;;2.67;0.98;;;19.80;51.90;;;;;;5114870;28;20069;-33
2022/06/16 08:36:34;;;;;;;1.90;1.10;;;19.80;51.70;;;;;;5113851;28;20024;-30
2022/06/16 08:39:00;;;;;;;1.05;0.80;;;19.90;51.80;;;;;;5114768;28;20062;-29
2022/06/16 08:41:33;;;;;;;1.33;1.10;;;19.90;51.70;;;;;;5114719;28;20063;-32
2022/06/16 08:44:15;;;;;;;2.00;1.00;;;20.00;51.60;;;;;;5115157;28;20027;-31
2022/06/16 08:47:00;;;;;;;2.60;1.20;;;20.10;51.50;;;;;;5114827;28;20015;-30
2022/06/16 08:49:45;;;;;;;1.42;1.00;;;20.10;51.40;;;;;;5114828;28;20081;-31
2022/06/16 08:52:17;;;;;;;2.30;0.98;;;20.20;51.00;;;;;;5114653;28;20016;-31
2022/06/16 08:55:13;;;;;;;1.27;1.00;;;20.20;51.20;;;;;;5114524;28;20031;-31
2022/06/16 08:57:52;;;;;;;2.17;0.98;;;20.30;51.00;;;;;;5114633;28;20471;-31
2022/06/16 09:00:22;;;;;;;2.10;1.10;;;20.30;50.90;;;;;;5114195;28;20044;-31
2022/06/16 09:03:15;;;;;;;2.17;1.00;;;20.40;51.00;;;;;;5114284;28;20034;-41
2022/06/16 09:06:00;;;;;;;1.23;0.95;;;20.40;50.60;;;;;;5114128;28;20454;-35
2022/06/16 09:08:51;;;;;;;1.83;1.05;;;20.40;50.60;;;;;;5114309;28;20022;-30
2022/06/16 09:11:43;;;;;;;1.10;0.95;;;20.50;50.60;;;;;;5113996;28;20034;-35
2022/06/16 09:15:10;;;;;;;2.90;0.90;;;20.50;50.60;;;;;;5114174;28;20111;-32
2022/06/16 09:17:21;;;;;;;3.03;1.33;;;20.60;50.40;;;;;;5114029;28;20024;-31
2022/06/16 09:19:58;;;;;;;3.35;1.27;;;20.70;49.80;;;;;;5113947;28;20016;-32
2022/06/16 09:22:39;;;;;;;3.53;1.35;;;20.70;49.80;;;;;;5114584;28;20059;-31
2022/06/16 09:25:12;;;;;;;1.77;1.10;;;20.80;49.70;;;;;;5114254;28;20475;-30
2022/06/16 09:27:46;;;;;;;1.85;1.40;;;20.80;49.60;;;;;;5114210;28;20032;-31
2022/06/16 09:30:17;;;;;;;1.58;1.08;;;20.80;49.40;;;;;;5113786;28;20432;-31
2022/06/16 09:33:09;;;;;;;2.95;1.20;;;20.90;49.40;;;;;;5113967;28;20440;-31
2022/06/16 09:35:43;;;;;;;2.17;1.20;;;20.90;49.30;;;;;;5113849;28;20053;-31
2022/06/16 09:38:33;;;;;;;1.48;1.10;;;20.90;49.10;;;;;;5114139;28;20512;-31
2022/06/16 09:42:32;;;;;;;2.55;1.30;;;20.90;49.10;;;;;;5114090;28;20332;-34
2022/06/16 09:43:55;;;;;;;1.63;1.00;;;21.00;49.20;;;;;;5113433;28;20024;-33
2022/06/16 09:46:32;;;;;;;2.33;1.20;;;21.00;49.20;;;;;;5113671;28;20492;-33
2022/06/16 09:49:10;;;;;;;1.80;1.08;;;21.20;49.40;;;;;;5112321;28;20039;-30
2022/06/16 09:52:07;;;;;;;1.65;1.10;;;21.30;49.30;;;;;;5113436;28;20023;-32
2022/06/16 09:54:42;;;;;;;1.65;1.20;;;21.40;49.30;;;;;;5098726;28;20049;-32
2022/06/16 09:57:25;;;;;;;3.67;1.15;;;21.50;49.10;;;;;;5113347;28;20020;-31
2022/06/16 09:59:56;;;;;;;3.95;1.30;;;21.60;49.20;;;;;;5113235;28;20092;-31
2022/06/16 10:02:23;;;;;;;3.03;1.15;;;21.70;49.10;;;;;;5113425;28;20086;-32
2022/06/16 10:04:51;;;;;;;1.40;1.02;;;21.80;49.00;;;;;;5113255;28;20031;-31
2022/06/16 10:07:33;;;;;;;2.97;1.20;;;21.90;48.80;;;;;;5112435;28;20500;-32
2022/06/16 10:10:21;;;;;;;2.63;1.25;;;21.90;48.60;;;;;;5113396;28;20092;-32
2022/06/16 10:13:19;;;;;;;2.72;1.15;;;21.90;48.30;;;;;;5113149;28;20031;-33
2022/06/16 10:16:09;;;;;;;3.95;1.20;;;22.00;48.50;;;;;;5113401;28;20450;-37
2022/06/16 10:18:35;;;;;;;2.40;1.30;;;22.00;48.50;;;;;;5113391;28;20034;-31
2022/06/16 10:21:02;;;;;;;2.50;1.40;;;22.10;48.50;;;;;;5113035;28;20020;-32
2022/06/16 10:23:38;;;;;;;1.25;1.15;;;22.10;48.30;;;;;;5112680;28;20027;-32
2022/06/16 10:26:07;;;;;;;3.88;1.30;;;22.20;48.30;;;;;;5113350;28;20412;-37
2022/06/16 10:28:35;;;;;;;2.90;1.40;;;22.20;48.10;;;;;;5113302;28;20024;-36
2022/06/16 10:31:03;;;;;;;1.88;1.30;;;22.30;48.00;;;;;;5113209;28;20075;-31
2022/06/16 10:33:51;;;;;;;3.25;1.30;;;22.30;47.90;;;;;;5113214;28;20129;-33
2022/06/16 10:36:20;;;;;;;1.25;1.15;;;22.40;47.90;;;;;;5113139;28;20023;-31
2022/06/16 10:39:05;;;;;;;2.17;1.13;;;22.50;48.00;;;;;;5113212;28;20043;-33
2022/06/16 10:41:39;;;;;;;1.92;1.20;;;22.60;48.00;;;;;;5113016;28;20106;-34
2022/06/16 10:44:09;;;;;;;2.45;1.42;;;22.60;47.70;;;;;;5112860;28;20032;-32
2022/06/16 10:46:48;;;;;;;3.05;1.45;;;22.70;47.50;;;;;;5112940;27;20023;-36
2022/06/16 10:49:19;;;;;;;5.72;2.78;;;22.80;47.20;;;;;;5113519;28;20133;-32
2022/06/16 10:52:09;;;;;;;3.25;1.90;;;22.90;47.30;;;;;;5113213;28;20506;-31
2022/06/16 10:54:42;;;;;;;3.22;1.80;;;22.90;46.90;;;;;;5113098;28;20023;-31
2022/06/16 10:57:16;;;;;;;2.85;1.58;;;22.90;46.80;;;;;;5112965;28;20019;-31
2022/06/16 10:59:47;;;;;;;2.75;1.45;;;23.00;46.70;;;;;;5112528;28;20073;-31
2022/06/16 11:02:26;;;;;;;3.13;1.70;;;23.00;46.70;;;;;;5111459;28;20487;-37
2022/06/16 11:05:13;;;;;;;3.50;1.30;;;23.00;46.80;;;;;;5112953;28;20023;-32
2022/06/16 11:07:42;;;;;;;1.38;1.23;;;23.10;46.60;;;;;;5112751;28;20024;-31
2022/06/16 11:10:33;;;;;;;1.52;1.27;;;23.20;46.60;;;;;;5113176;28;20030;-31
2022/06/16 11:12:59;;;;;;;1.85;1.33;;;23.30;46.60;;;;;;5113035;28;20032;-31
2022/06/16 11:15:40;;;;;;;2.35;1.40;;;23.40;46.50;;;;;;5112904;28;20114;-33
2022/06/16 11:18:15;;;;;;;4.90;1.25;;;23.50;46.30;;;;;;5112351;28;20039;-35
2022/06/16 11:20:44;;;;;;;2.30;1.33;;;23.60;46.20;;;;;;5112388;28;20020;-33
2022/06/16 11:23:21;;;;;;;3.08;1.10;;;23.60;46.20;;;;;;5111731;28;20030;-30
2022/06/16 11:25:52;;;;;;;2.35;1.30;;;23.70;45.90;;;;;;5112478;28;20015;-33
2022/06/16 11:28:22;;;;;;;2.28;1.20;;;23.80;45.80;;;;;;5112735;28;20073;-33
2022/06/16 11:30:47;;;;;;;1.77;1.20;;;23.90;45.60;;;;;;5112411;28;20024;-32
2022/06/16 11:36:48;;;;;;;1.80;1.00;;;24.00;45.30;;;;;;5114782;28;20528;-31
2022/06/16 11:39:51;;;;;;;2.03;1.40;;;24.10;45.00;;;;;;5116501;28;20046;-32
2022/06/16 11:42:57;;;;;;;2.37;1.20;;;24.10;44.70;;;;;;5116223;28;20119;-32
2022/06/16 11:45:35;;;;;;;2.35;1.58;;;24.20;44.90;;;;;;5116186;28;20517;-32
2022/06/16 11:48:25;;;;;;;2.50;1.13;;;24.30;44.80;;;;;;5116232;28;20032;-31
2022/06/16 11:50:57;;;;;;;4.53;1.20;;;24.40;44.60;;;;;;5115812;27;20031;-34
2022/06/16 11:53:44;;;;;;;2.65;1.20;;;24.50;44.60;;;;;;5115887;28;20016;-36
2022/06/16 11:56:15;;;;;;;2.13;1.10;;;24.60;44.50;;;;;;5116024;28;20028;-30
2022/06/16 11:59:04;;;;;;;2.60;1.30;;;24.70;44.40;;;;;;5116015;28;20028;-33
2022/06/16 12:01:35;;;;;;;1.30;1.10;;;24.80;44.30;;;;;;5115329;28;20047;-32
2022/06/16 12:04:30;;;;;;;2.67;1.30;;;24.90;44.40;;;;;;5115842;28;20030;-31
2022/06/16 12:07:16;;;;;;;2.72;1.23;;;25.10;44.10;;;;;;5115613;28;20031;-30
2022/06/16 12:09:50;;;;;;;2.03;1.20;;;25.30;44.00;;;;;;5115701;28;20085;-31
2022/06/16 12:12:19;;;;;;;;;;;25.30;43.80;;;;;;5116163;28;20099;-30
2022/06/16 12:15:08;;;;;;;2.10;1.20;;;25.40;44.00;;;;;;5115439;27;19903;-32
2022/06/16 12:17:41;;;;;;;1.45;1.10;;;25.60;44.10;;;;;;5115198;28;20027;-33
2022/06/16 12:20:50;;;;;;;3.03;1.40;;;25.70;44.10;;;;;;5115266;28;20027;-34
2022/06/16 12:23:22;;;;;;;2.67;1.40;;;25.80;43.80;;;;;;5072442;28;20435;-32
2022/06/16 12:26:16;;;;;;;1.60;1.27;;;25.90;43.60;;;;;;5108170;28;20035;-33
2022/06/16 12:28:48;;;;;;;;;;;25.90;43.60;;;;;;5115782;28;20024;-31
2022/06/16 12:31:23;;;;;;;4.13;1.23;;;26.00;43.80;;;;;;5115122;28;19904;-32
2022/06/16 12:34:23;;;;;;;2.63;1.60;;;26.10;43.40;;;;;;5113800;28;20486;-32
2022/06/16 12:36:54;;;;;;;4.70;1.30;;;26.10;42.70;;;;;;5115011;28;20030;-33
2022/06/16 12:39:28;;;;;;;3.10;1.30;;;26.20;42.90;;;;;;5115115;28;20027;-33
2022/06/16 12:41:57;;;;;;;2.15;1.40;;;26.30;42.70;;;;;;5114869;28;20023;-34
2022/06/16 12:44:33;;;;;;;2.13;1.20;;;26.40;42.50;;;;;;5115105;28;20459;-31
2022/06/16 12:47:09;;;;;;;2.53;1.23;;;26.50;42.40;;;;;;5113970;28;20023;-32
2022/06/16 12:50:04;;;;;;;2.42;1.42;;;26.60;42.20;;;;;;5113355;28;20020;-32
2022/06/16 12:52:39;;;;;;;1.98;1.30;;;26.70;42.20;;;;;;5112566;28;20039;-34
2022/06/16 12:55:12;;;;;;;2.15;1.20;;;26.70;42.00;;;;;;5114730;28;20023;-32
2022/06/16 12:57:43;;;;;;;1.95;1.30;;;26.90;42.10;;;;;;5114723;28;20088;-38
2022/06/16 13:00:13;;;;;;;2.25;1.50;;;26.90;41.80;;;;;;5114368;28;20425;-31
2022/06/16 13:02:50;;;;;;;2.15;1.30;;;26.90;41.40;;;;;;5114454;28;20024;-31
2022/06/16 13:05:19;;;;;;;2.75;1.30;;;27.10;41.60;;;;;;5114485;28;20051;-32
2022/06/16 13:07:50;;;;;;;1.02;0.90;;;27.20;41.50;;;;;;5114333;28;20045;-30
2022/06/16 13:10:17;;;;;;;1.95;1.13;;;27.40;41.50;;;;;;5114404;28;20062;-32
2022/06/16 13:12:50;;;;;;;1.95;1.33;;;27.60;41.40;;;;;;5114348;28;20058;-32
2022/06/16 13:15:21;;;;;;;2.17;1.00;;;27.80;41.20;;;;;;5114338;28;20391;-32
2022/06/16 13:17:53;;;;;;;1.88;1.10;;;28.00;40.90;;;;;;5114453;28;20027;-32
2022/06/16 13:20:25;;;;;;;4.17;1.10;;;28.10;40.70;;;;;;5114100;28;20019;-34
2022/06/16 13:23:16;;;;;;;1.33;1.08;;;27.90;40.70;;;;;;5114542;28;20020;-32
2022/06/16 13:25:45;;;;;;;1.45;1.00;;;27.70;40.40;;;;;;5114453;28;20468;-31
2022/06/16 13:28:23;;;;;;;1.98;1.30;;;27.50;40.60;;;;;;5114484;28;20103;-31
2022/06/16 13:31:14;;;;;;;1.65;1.30;;;27.30;40.60;;;;;;5114376;28;20035;-31
2022/06/16 13:33:49;;;;;;;3.50;1.10;;;27.10;40.60;;;;;;5113970;28;20102;-31
2022/06/16 13:36:30;;;;;;;2.05;1.10;;;27.00;40.80;;;;;;5114116;28;20031;-32